createdAt,value
2018-07-13T00:00:58.286Z,66.14
2018-07-13T00:03:27.219Z,65.37
2018-07-13T00:05:56.354Z,65.57
2018-07-13T00:08:25.288Z,65.13
2018-07-13T00:10:54.062Z,65.24
2018-07-13T00:13:23.022Z,65.30
2018-07-13T00:15:58.947Z,64.69
2018-07-13T00:18:28.187Z,64.76
2018-07-13T00:20:57.653Z,65.55
2018-07-13T00:23:26.451Z,65.59
2018-07-13T00:25:55.707Z,65.17
2018-07-13T00:28:25.009Z,65.31
2018-07-13T00:30:53.962Z,65.65
2018-07-13T00:33:23.061Z,65.85
2018-07-13T00:35:51.834Z,66.39
2018-07-13T00:38:20.627Z,65.94
2018-07-13T00:40:49.707Z,65.53
2018-07-13T00:43:18.529Z,65.61
2018-07-13T00:45:47.243Z,66.21
2018-07-13T00:48:16.252Z,66.05
2018-07-13T00:50:45.428Z,66.09
2018-07-13T00:53:14.471Z,66.17
2018-07-13T00:55:43.503Z,66.50
2018-07-13T00:58:12.761Z,66.14
2018-07-13T01:00:41.873Z,66.30
2018-07-13T01:03:11.410Z,66.19
2018-07-13T01:05:40.683Z,66.25
2018-07-13T01:08:09.432Z,66.54
2018-07-13T01:10:38.472Z,66.49
2018-07-13T01:13:07.639Z,66.79
2018-07-13T01:15:42.690Z,66.40
2018-07-13T01:18:11.434Z,67.83
2018-07-13T01:20:41.342Z,68.20
2018-07-13T01:23:10.414Z,68.03
2018-07-13T01:25:39.525Z,68.17
2018-07-13T01:28:08.406Z,67.37
2018-07-13T01:30:38.434Z,66.98
2018-07-13T01:33:07.221Z,66.96
2018-07-13T01:35:36.193Z,67.22
2018-07-13T01:38:05.416Z,66.81
2018-07-13T01:40:34.374Z,66.49
2018-07-13T01:43:03.582Z,66.76
2018-07-13T01:45:33.034Z,67.06
2018-07-13T01:48:02.003Z,67.35
2018-07-13T01:50:31.081Z,67.45
2018-07-13T01:53:00.113Z,67.54
2018-07-13T01:55:29.031Z,67.86
2018-07-13T01:57:58.062Z,67.93
2018-07-13T02:00:27.527Z,68.43
2018-07-13T02:02:56.441Z,68.51
2018-07-13T02:05:25.454Z,68.49
2018-07-13T02:07:54.878Z,68.52
2018-07-13T02:10:24.092Z,68.33
2018-07-13T02:12:53.383Z,68.52
2018-07-13T02:15:22.421Z,68.40
2018-07-13T02:17:51.811Z,68.81
2018-07-13T02:20:21.054Z,69.19
2018-07-13T02:22:50.058Z,69.33
2018-07-13T02:25:18.785Z,69.43
2018-07-13T02:27:47.944Z,69.51
2018-07-13T02:30:17.266Z,69.90
2018-07-13T02:32:46.231Z,69.68
2018-07-13T02:35:15.415Z,69.77
2018-07-13T02:37:45.118Z,69.38
2018-07-13T02:40:14.296Z,69.41
2018-07-13T02:42:43.634Z,69.68
2018-07-13T02:45:13.002Z,69.99
2018-07-13T02:47:42.177Z,70.04
2018-07-13T02:50:11.054Z,70.39
2018-07-13T02:52:40.294Z,70.25
2018-07-13T02:55:09.109Z,70.36
2018-07-13T02:57:38.099Z,70.27
2018-07-13T03:00:07.431Z,70.41
2018-07-13T03:02:36.866Z,70.24
2018-07-13T03:05:05.910Z,70.07
2018-07-13T03:07:34.974Z,70.26
2018-07-13T03:10:04.717Z,70.46
2018-07-13T03:12:33.814Z,70.69
2018-07-13T03:15:03.041Z,70.95
2018-07-13T03:17:32.036Z,70.77
2018-07-13T03:20:01.002Z,71.04
2018-07-13T03:22:30.078Z,70.67
2018-07-13T03:24:58.860Z,70.76
2018-07-13T03:27:27.777Z,70.13
2018-07-13T03:29:56.894Z,70.24
2018-07-13T03:32:26.198Z,70.50
2018-07-13T03:34:55.274Z,70.82
2018-07-13T03:37:24.709Z,70.70
2018-07-13T03:39:53.573Z,70.96
2018-07-13T03:42:22.502Z,70.67
2018-07-13T03:44:51.797Z,70.83
2018-07-13T03:47:20.543Z,71.01
2018-07-13T03:49:49.551Z,71.40
2018-07-13T03:52:18.657Z,70.63
2018-07-13T03:54:47.945Z,70.65
2018-07-13T03:57:17.342Z,70.61
2018-07-13T03:59:47.483Z,70.79
2018-07-13T04:02:16.246Z,70.77
2018-07-13T04:04:45.398Z,70.06
2018-07-13T04:07:14.571Z,70.59
2018-07-13T04:09:43.641Z,70.83
2018-07-13T04:12:12.927Z,70.14
2018-07-13T04:14:42.432Z,69.90
2018-07-13T04:17:11.284Z,70.58
2018-07-13T04:19:40.205Z,70.54
2018-07-13T04:22:09.045Z,69.61
2018-07-13T04:24:38.070Z,69.92
2018-07-13T04:27:07.100Z,69.68
2018-07-13T04:29:36.897Z,69.76
2018-07-13T04:32:05.921Z,69.39
2018-07-13T04:34:35.168Z,69.27
2018-07-13T04:37:04.849Z,69.33
2018-07-13T04:39:33.841Z,69.08
2018-07-13T04:42:02.806Z,68.66
2018-07-13T04:44:32.165Z,69.08
2018-07-13T04:47:01.543Z,69.69
2018-07-13T04:49:31.008Z,69.73
2018-07-13T04:52:00.367Z,69.85
2018-07-13T04:54:29.478Z,69.91
2018-07-13T04:57:00.218Z,69.65
2018-07-13T04:59:29.586Z,69.21
2018-07-13T05:02:01.666Z,69.50
2018-07-13T05:04:31.936Z,69.71
2018-07-13T05:07:03.652Z,69.07
2018-07-13T05:09:32.718Z,69.17
2018-07-13T05:12:02.786Z,68.69
2018-07-13T05:14:31.811Z,69.38
2018-07-13T05:17:01.010Z,68.63
2018-07-13T05:19:29.770Z,68.74
2018-07-13T05:21:58.857Z,69.14
2018-07-13T05:24:28.030Z,69.09
2018-07-13T05:26:57.006Z,69.47
2018-07-13T05:29:26.642Z,69.59
2018-07-13T05:31:56.258Z,69.27
2018-07-13T05:34:25.416Z,69.08
2018-07-13T05:36:54.566Z,69.11
2018-07-13T05:39:24.146Z,69.15
2018-07-13T05:41:53.215Z,69.14
2018-07-13T05:44:22.209Z,69.02
2018-07-13T05:46:51.945Z,68.54
2018-07-13T05:49:21.161Z,68.90
2018-07-13T05:51:50.177Z,69.42
2018-07-13T05:54:19.196Z,69.06
2018-07-13T05:56:48.397Z,68.75
2018-07-13T05:59:17.594Z,68.80
2018-07-13T06:01:47.374Z,68.36
2018-07-13T06:04:16.447Z,67.89
2018-07-13T06:06:45.388Z,68.83
2018-07-13T06:09:14.726Z,68.01
2018-07-13T06:11:44.314Z,68.31
2018-07-13T06:14:13.319Z,67.44
2018-07-13T06:16:42.382Z,66.87
2018-07-13T06:19:11.583Z,67.84
2018-07-13T06:21:40.811Z,67.57
2018-07-13T06:24:09.928Z,67.14
2018-07-13T06:26:38.890Z,65.48
2018-07-13T06:29:07.535Z,66.17
2018-07-13T06:31:36.939Z,66.07
2018-07-13T06:34:05.760Z,66.79
2018-07-13T06:36:34.674Z,65.85
2018-07-13T06:39:04.385Z,66.13
2018-07-13T06:41:33.422Z,66.48
2018-07-13T06:44:02.265Z,65.70
2018-07-13T06:46:31.762Z,66.99
2018-07-13T06:49:00.910Z,66.10
2018-07-13T06:51:30.061Z,65.36
2018-07-13T06:53:59.198Z,65.56
2018-07-13T06:56:28.077Z,65.38
2018-07-13T06:59:05.667Z,65.19
2018-07-13T07:01:35.098Z,65.21
2018-07-13T07:04:36.350Z,65.87
2018-07-13T07:07:13.551Z,65.89
2018-07-13T07:09:46.504Z,64.79
2018-07-13T07:13:21.415Z,63.57
2018-07-13T07:15:51.333Z,64.72
2018-07-13T07:18:20.843Z,63.31
2018-07-13T07:20:50.532Z,63.00
2018-07-13T07:23:20.143Z,62.75
2018-07-13T07:25:49.298Z,61.97
2018-07-13T07:28:18.834Z,62.92
2018-07-13T07:30:48.469Z,61.63
2018-07-13T07:33:17.306Z,62.52
2018-07-13T07:35:46.798Z,62.72
2018-07-13T07:38:16.036Z,62.81
2018-07-13T07:40:45.351Z,61.03
2018-07-13T07:43:14.504Z,60.88
2018-07-13T07:45:43.510Z,60.35
2018-07-13T07:48:13.202Z,59.84
2018-07-13T07:50:42.213Z,61.12
2018-07-13T07:53:11.297Z,60.19
2018-07-13T07:55:41.001Z,59.01
2018-07-13T07:58:10.056Z,61.15
2018-07-13T08:00:39.008Z,59.63
2018-07-13T08:03:08.390Z,60.17
2018-07-13T08:05:37.382Z,60.04
2018-07-13T08:08:06.264Z,60.10
2018-07-13T08:10:35.595Z,60.57
2018-07-13T08:13:04.444Z,59.03
2018-07-13T08:15:33.446Z,56.43
2018-07-13T08:18:02.963Z,57.84
2018-07-13T08:20:33.884Z,57.24
2018-07-13T08:23:06.205Z,57.48
2018-07-13T08:25:35.702Z,55.97
2018-07-13T08:28:05.541Z,56.24
2018-07-13T08:30:39.397Z,57.10
2018-07-13T08:33:08.278Z,55.36
2018-07-13T08:35:37.233Z,54.87
2018-07-13T08:38:06.762Z,55.30
2018-07-13T08:40:35.879Z,55.11
2018-07-13T08:43:05.156Z,55.42
2018-07-13T08:45:34.152Z,55.84
2018-07-13T08:48:03.062Z,53.83
2018-07-13T08:50:32.561Z,55.77
2018-07-13T08:53:01.674Z,55.37
2018-07-13T08:55:30.898Z,55.94
2018-07-13T08:58:00.146Z,53.58
2018-07-13T09:00:29.257Z,53.55
2018-07-13T09:02:58.126Z,52.65
2018-07-13T09:05:26.923Z,50.51
2018-07-13T09:07:56.472Z,51.70
2018-07-13T09:10:25.542Z,53.26
2018-07-13T09:12:54.367Z,52.53
2018-07-13T09:15:23.843Z,52.48
2018-07-13T09:17:52.630Z,52.10
2018-07-13T09:20:21.670Z,50.31
2018-07-13T09:22:50.826Z,49.02
2018-07-13T09:25:19.818Z,50.54
2018-07-13T09:27:48.746Z,51.07
2018-07-13T09:30:17.951Z,50.07
2018-07-13T09:32:46.835Z,49.32
2018-07-13T09:35:15.877Z,49.84
2018-07-13T09:37:45.111Z,50.55
2018-07-13T09:40:14.231Z,51.25
2018-07-13T09:42:42.969Z,48.77
2018-07-13T09:45:12.217Z,48.08
2018-07-13T09:47:41.157Z,47.84
2018-07-13T09:50:11.151Z,48.43
2018-07-13T09:52:40.410Z,47.64
2018-07-13T09:55:09.528Z,47.30
2018-07-13T09:57:38.366Z,45.95
2018-07-13T10:00:07.796Z,45.74
2018-07-13T10:02:36.817Z,45.54
2018-07-13T10:05:05.700Z,44.15
2018-07-13T10:07:35.298Z,44.88
2018-07-13T10:10:04.372Z,44.01
2018-07-13T10:12:33.365Z,47.68
2018-07-13T10:15:02.190Z,44.41
2018-07-13T10:17:31.031Z,46.56
2018-07-13T10:19:59.945Z,46.25
2018-07-13T10:22:29.801Z,46.84
2018-07-13T10:25:00.727Z,45.90
2018-07-13T10:27:33.787Z,46.32
2018-07-13T10:30:04.589Z,44.23
2018-07-13T10:32:33.760Z,44.03
2018-07-13T10:35:04.042Z,45.28
2018-07-13T10:37:33.102Z,45.24
2018-07-13T10:40:01.931Z,43.14
2018-07-13T10:42:30.629Z,41.20
2018-07-13T10:44:59.578Z,41.70
2018-07-13T10:47:28.601Z,40.11
2018-07-13T10:49:58.022Z,39.94
2018-07-13T10:52:27.101Z,42.54
2018-07-13T10:54:56.104Z,39.58
2018-07-13T10:57:25.176Z,39.98
2018-07-13T10:59:54.230Z,39.49
2018-07-13T11:02:23.177Z,39.13
2018-07-13T11:04:52.042Z,41.02
2018-07-13T11:07:20.807Z,37.95
2018-07-13T11:09:49.732Z,37.38
2018-07-13T11:12:18.573Z,36.62
2018-07-13T11:14:47.321Z,37.79
2018-07-13T11:17:16.297Z,37.33
2018-07-13T11:19:45.685Z,37.15
2018-07-13T11:22:14.461Z,38.04
2018-07-13T11:24:44.091Z,38.09
2018-07-13T11:27:13.122Z,39.91
2018-07-13T11:29:42.288Z,40.39
2018-07-13T11:32:11.552Z,40.38
2018-07-13T11:34:40.510Z,40.49
2018-07-13T11:37:09.615Z,44.70
2018-07-13T11:39:38.281Z,47.80
2018-07-13T11:42:07.213Z,48.28
2018-07-13T11:44:36.513Z,47.09
2018-07-13T11:47:05.478Z,44.76
2018-07-13T11:49:34.291Z,41.40
2018-07-13T11:52:02.999Z,41.16
2018-07-13T11:54:31.751Z,42.10
2018-07-13T11:57:01.054Z,42.36
2018-07-13T11:59:29.952Z,40.36
2018-07-13T12:01:58.835Z,39.98
2018-07-13T12:04:27.674Z,40.67
2018-07-13T12:06:56.607Z,42.34
2018-07-13T12:09:25.403Z,44.08
2018-07-13T12:11:54.728Z,43.63
2018-07-13T12:14:23.607Z,40.58
2018-07-13T12:16:52.497Z,42.23
2018-07-13T12:19:21.705Z,44.01
2018-07-13T12:21:50.736Z,44.24
2018-07-13T12:24:19.519Z,43.63
2018-07-13T12:26:48.576Z,44.52
2018-07-13T12:29:17.254Z,43.21
2018-07-13T12:31:46.358Z,42.66
2018-07-13T12:34:15.679Z,43.10
2018-07-13T12:36:44.987Z,42.61
2018-07-13T12:39:13.947Z,43.55
2018-07-13T12:41:43.167Z,44.12
2018-07-13T12:44:11.879Z,43.57
2018-07-13T12:46:40.770Z,42.52
2018-07-13T12:49:09.738Z,41.00
2018-07-13T12:51:38.846Z,40.73
2018-07-13T12:54:07.697Z,40.05
2018-07-13T12:56:36.823Z,40.47
2018-07-13T12:59:06.087Z,38.83
2018-07-13T13:01:34.985Z,40.15
2018-07-13T13:04:04.065Z,39.65
2018-07-13T13:06:33.082Z,38.75
2018-07-13T13:09:01.880Z,38.88
2018-07-13T13:11:30.758Z,37.44
2018-07-13T13:13:59.558Z,37.48
2018-07-13T13:16:28.453Z,37.86
2018-07-13T13:18:57.661Z,35.89
2018-07-13T13:21:26.504Z,36.27
2018-07-13T13:23:55.599Z,36.87
2018-07-13T13:26:24.759Z,37.86
2018-07-13T13:28:53.726Z,37.82
2018-07-13T13:31:22.978Z,36.41
2018-07-13T13:33:52.251Z,36.65
2018-07-13T13:36:21.303Z,36.38
2018-07-13T13:38:50.112Z,36.70
2018-07-13T13:41:19.330Z,36.18
2018-07-13T13:43:48.103Z,36.09
2018-07-13T13:46:16.822Z,36.41
2018-07-13T13:48:46.097Z,39.97
2018-07-13T13:51:15.055Z,39.23
2018-07-13T13:53:43.897Z,40.62
2018-07-13T13:56:13.078Z,41.74
2018-07-13T13:58:41.968Z,42.98
2018-07-13T14:01:10.745Z,43.76
2018-07-13T14:03:39.984Z,46.13
2018-07-13T14:06:09.037Z,50.02
2018-07-13T14:08:38.142Z,52.37
2018-07-13T14:11:07.661Z,52.76
2018-07-13T14:13:36.637Z,53.22
2018-07-13T14:16:05.377Z,53.68
2018-07-13T14:18:34.592Z,55.03
2018-07-13T14:21:03.610Z,56.82
2018-07-13T14:23:32.414Z,57.62
2018-07-13T14:26:01.834Z,56.15
2018-07-13T14:28:30.921Z,55.73
2018-07-13T14:30:59.772Z,56.75
2018-07-13T14:33:29.143Z,57.28
2018-07-13T14:35:58.045Z,58.17
2018-07-13T14:38:27.043Z,57.71
2018-07-13T14:40:56.772Z,56.43
2018-07-13T14:43:25.705Z,55.96
2018-07-13T14:45:54.585Z,57.23
2018-07-13T14:48:23.718Z,54.42
2018-07-13T14:50:52.466Z,53.93
2018-07-13T14:53:21.590Z,53.51
2018-07-13T14:55:50.550Z,51.50
2018-07-13T14:58:19.798Z,50.62
2018-07-13T15:00:48.807Z,51.52
2018-07-13T15:03:18.177Z,50.26
2018-07-13T15:05:47.251Z,45.71
2018-07-13T15:08:16.147Z,42.69
2018-07-13T15:10:45.795Z,45.94
2018-07-13T15:13:15.024Z,43.98
2018-07-13T15:15:43.993Z,46.26
2018-07-13T15:18:13.034Z,39.57
2018-07-13T15:20:42.343Z,42.18
2018-07-13T15:23:11.366Z,43.07
2018-07-13T15:25:40.612Z,43.79
2018-07-13T15:28:09.686Z,42.90
2018-07-13T15:30:39.095Z,43.47
2018-07-13T15:33:08.066Z,43.25
2018-07-13T15:35:36.687Z,44.11
2018-07-13T15:38:05.498Z,43.08
2018-07-13T15:40:34.698Z,42.50
2018-07-13T15:43:03.609Z,40.80
2018-07-13T15:45:32.522Z,42.72
2018-07-13T15:48:02.248Z,41.84
2018-07-13T15:50:31.235Z,41.57
2018-07-13T15:53:00.399Z,40.71
2018-07-13T15:55:34.084Z,40.44
2018-07-13T15:58:03.097Z,40.83
2018-07-13T16:00:31.908Z,41.84
2018-07-13T16:03:00.866Z,43.83
2018-07-13T16:05:30.212Z,43.74
2018-07-13T16:07:59.482Z,44.02
2018-07-13T16:10:28.742Z,45.23
2018-07-13T16:12:57.472Z,44.83
2018-07-13T16:15:26.470Z,47.55
2018-07-13T16:17:56.446Z,45.29
2018-07-13T16:20:25.318Z,45.18
2018-07-13T16:22:54.279Z,47.51
2018-07-13T16:25:23.491Z,48.69
2018-07-13T16:27:52.632Z,50.30
2018-07-13T16:30:21.382Z,50.64
2018-07-13T16:32:50.799Z,50.76
2018-07-13T16:35:19.753Z,50.74
2018-07-13T16:37:48.903Z,50.80
2018-07-13T16:40:18.185Z,50.57
2018-07-13T16:42:47.144Z,50.78
2018-07-13T16:45:16.032Z,48.72
2018-07-13T16:47:45.554Z,49.33
2018-07-13T16:50:14.482Z,50.04
2018-07-13T16:52:43.401Z,49.87
2018-07-13T16:55:12.443Z,49.82
2018-07-13T16:57:41.418Z,50.64
2018-07-13T17:00:10.127Z,50.33
2018-07-13T17:02:39.574Z,50.73
2018-07-13T17:05:08.394Z,50.70
2018-07-13T17:07:37.395Z,51.83
2018-07-13T17:10:06.196Z,51.28
2018-07-13T17:12:35.358Z,51.31
2018-07-13T17:15:04.092Z,52.50
2018-07-13T17:17:34.152Z,52.88
2018-07-13T17:20:02.907Z,53.94
2018-07-13T17:22:31.875Z,54.22
2018-07-13T17:25:01.868Z,53.73
2018-07-13T17:27:30.673Z,53.44
2018-07-13T17:29:59.550Z,54.04
2018-07-13T17:32:28.792Z,54.13
2018-07-13T17:34:59.002Z,54.47
2018-07-13T17:37:33.021Z,54.03
2018-07-13T17:40:02.294Z,54.27
2018-07-13T17:42:32.193Z,54.14
2018-07-13T17:45:01.288Z,53.35
2018-07-13T17:47:30.183Z,52.75
2018-07-13T17:49:59.054Z,53.45
2018-07-13T17:52:27.762Z,53.63
2018-07-13T17:54:56.770Z,54.09
2018-07-13T17:57:25.445Z,54.01
2018-07-13T17:59:56.463Z,53.56
2018-07-13T18:02:26.311Z,53.18
2018-07-13T18:04:58.400Z,52.62
2018-07-13T18:07:28.860Z,53.24
2018-07-13T18:10:02.674Z,53.44
2018-07-13T18:12:31.732Z,53.73
2018-07-13T18:15:01.384Z,54.03
2018-07-13T18:17:31.651Z,53.73
2018-07-13T18:20:01.757Z,54.63
2018-07-13T18:22:30.576Z,54.13
2018-07-13T18:24:59.786Z,54.15
2018-07-13T18:27:29.288Z,54.29
2018-07-13T18:29:58.875Z,53.96
2018-07-13T18:32:29.973Z,54.69
2018-07-13T18:34:59.035Z,54.83
2018-07-13T18:37:33.463Z,54.73
2018-07-13T18:40:02.412Z,54.70
2018-07-13T18:42:31.960Z,54.43
2018-07-13T18:45:01.954Z,54.94
2018-07-13T18:47:30.754Z,55.17
2018-07-13T18:50:00.071Z,55.33
2018-07-13T18:52:30.386Z,54.82
2018-07-13T18:54:59.446Z,54.29
2018-07-13T18:57:28.450Z,54.42
2018-07-13T18:59:57.893Z,54.33
2018-07-13T19:02:27.189Z,54.54
2018-07-13T19:04:56.388Z,55.37
2018-07-13T19:07:25.809Z,56.53
2018-07-13T19:09:55.050Z,55.83
2018-07-13T19:12:26.160Z,56.47
2018-07-13T19:14:57.770Z,56.79
2018-07-13T19:17:27.081Z,57.64
2018-07-13T19:19:56.046Z,57.20
2018-07-13T19:22:25.246Z,57.25
2018-07-13T19:24:54.881Z,58.53
2018-07-13T19:27:23.885Z,57.01
2018-07-13T19:29:52.606Z,57.84
2018-07-13T19:32:21.885Z,58.10
2018-07-13T19:34:50.761Z,58.16
2018-07-13T19:37:19.803Z,59.18
2018-07-13T19:39:49.203Z,57.87
2018-07-13T19:42:18.300Z,58.04
2018-07-13T19:44:47.430Z,58.36
2018-07-13T19:47:16.395Z,58.48
2018-07-13T19:49:45.406Z,57.89
2018-07-13T19:52:14.833Z,58.44
2018-07-13T19:54:44.241Z,58.86
2018-07-13T19:57:13.346Z,58.89
2018-07-13T19:59:42.933Z,58.65
2018-07-13T20:02:13.303Z,58.36
2018-07-13T20:04:42.262Z,59.70
2018-07-13T20:07:11.139Z,59.59
2018-07-13T20:09:40.665Z,60.18
2018-07-13T20:12:12.290Z,59.55
2018-07-13T20:14:41.699Z,60.27
2018-07-13T20:17:11.106Z,61.36
2018-07-13T20:19:39.941Z,61.74
2018-07-13T20:22:09.407Z,61.48
2018-07-13T20:24:38.401Z,61.81
2018-07-13T20:27:07.485Z,61.21
2018-07-13T20:29:37.814Z,61.97
2018-07-13T20:32:07.018Z,61.72
2018-07-13T20:34:36.175Z,60.65
2018-07-13T20:37:05.465Z,60.61
2018-07-13T20:39:34.548Z,60.82
2018-07-13T20:42:03.242Z,62.01
2018-07-13T20:44:32.325Z,62.63
2018-07-13T20:47:01.048Z,62.98
2018-07-13T20:49:29.756Z,62.78
2018-07-13T20:51:58.981Z,63.53
2018-07-13T20:54:27.950Z,63.12
2018-07-13T20:56:56.871Z,62.26
2018-07-13T20:59:25.541Z,62.41
2018-07-13T21:01:54.514Z,62.42
2018-07-13T21:04:24.383Z,62.26
2018-07-13T21:06:53.659Z,62.56
2018-07-13T21:09:22.819Z,62.70
2018-07-13T21:11:51.831Z,62.19
2018-07-13T21:14:20.798Z,63.18
2018-07-13T21:16:49.818Z,62.73
2018-07-13T21:19:18.525Z,64.04
2018-07-13T21:21:47.706Z,64.42
2018-07-13T21:24:16.513Z,64.89
2018-07-13T21:26:45.458Z,65.22
2018-07-13T21:29:14.474Z,64.82
2018-07-13T21:31:43.394Z,64.80
2018-07-13T21:34:12.392Z,65.07
2018-07-13T21:36:41.166Z,64.92
2018-07-13T21:39:09.864Z,65.32
2018-07-13T21:41:38.971Z,65.12
2018-07-13T21:44:08.240Z,65.04
2018-07-13T21:46:37.550Z,65.19
2018-07-13T21:49:06.572Z,65.10
2018-07-13T21:51:35.984Z,64.59
2018-07-13T21:54:05.312Z,64.47
2018-07-13T21:56:34.272Z,64.56
2018-07-13T21:59:03.880Z,64.62
2018-07-13T22:01:32.692Z,63.92
2018-07-13T22:04:01.626Z,65.66
2018-07-13T22:06:30.914Z,64.35
2018-07-13T22:08:59.937Z,64.12
2018-07-13T22:11:29.134Z,63.95
2018-07-13T22:13:58.269Z,63.81
2018-07-13T22:16:29.675Z,63.00
2018-07-13T22:18:58.515Z,62.69
2018-07-13T22:21:27.419Z,62.59
2018-07-13T22:23:56.678Z,62.21
2018-07-13T22:26:29.366Z,62.81
2018-07-13T22:28:59.899Z,62.72
2018-07-13T22:31:29.169Z,62.69
2018-07-13T22:33:58.599Z,62.26
2018-07-13T22:36:29.295Z,63.31
2018-07-13T22:38:58.283Z,62.11
2018-07-13T22:41:27.043Z,62.39
2018-07-13T22:43:56.218Z,62.05
2018-07-13T22:46:25.506Z,62.01
2018-07-13T22:48:54.671Z,61.39
2018-07-13T22:51:24.454Z,61.67
2018-07-13T22:53:53.510Z,61.42
2018-07-13T22:56:23.430Z,60.96
2018-07-13T22:58:53.466Z,60.97
2018-07-13T23:01:23.038Z,60.40
2018-07-13T23:03:52.186Z,59.38
2018-07-13T23:06:21.287Z,59.68
2018-07-13T23:08:50.221Z,59.84
2018-07-13T23:11:20.197Z,59.20
2018-07-13T23:13:49.780Z,58.94
2018-07-13T23:16:18.555Z,59.49
2018-07-13T23:18:47.699Z,60.08
2018-07-13T23:21:20.494Z,59.86
2018-07-13T23:23:49.577Z,58.60
2018-07-13T23:26:20.874Z,58.62
2018-07-13T23:28:49.919Z,58.75
2018-07-13T23:31:18.775Z,59.30
2018-07-13T23:33:47.874Z,59.28
2018-07-13T23:36:21.772Z,58.58
2018-07-13T23:38:50.675Z,58.60
2018-07-13T23:41:20.209Z,58.65
2018-07-13T23:43:49.150Z,58.83
2018-07-13T23:46:18.483Z,59.40
2018-07-13T23:48:48.069Z,58.83
2018-07-13T23:51:17.392Z,59.06
2018-07-13T23:53:47.025Z,58.68
2018-07-13T23:56:15.843Z,58.82
2018-07-13T23:58:44.864Z,58.85
